createdAt,value
2019-01-20T00:00:21.174Z,-0.07
2019-01-20T00:02:49.723Z,-0.08
2019-01-20T00:05:18.580Z,-0.09
2019-01-20T00:07:47.125Z,-0.08
2019-01-20T00:10:15.809Z,-0.09
2019-01-20T00:12:44.644Z,-0.12
2019-01-20T00:15:18.098Z,-0.13
2019-01-20T00:17:46.727Z,-0.17
2019-01-20T00:20:15.640Z,-0.20
2019-01-20T00:22:44.213Z,-0.21
2019-01-20T00:25:12.952Z,-0.24
2019-01-20T00:27:41.651Z,-0.25
2019-01-20T00:30:12.939Z,-0.26
2019-01-20T00:32:41.767Z,-0.27
2019-01-20T00:35:10.376Z,-0.29
2019-01-20T00:37:38.963Z,-0.29
2019-01-20T00:40:13.098Z,-0.28
2019-01-20T00:42:41.688Z,-0.29
2019-01-20T00:45:13.002Z,-0.29
2019-01-20T00:47:41.936Z,-0.27
2019-01-20T00:50:12.337Z,-0.24
2019-01-20T00:52:40.883Z,-0.28
2019-01-20T00:55:12.255Z,-0.29
2019-01-20T00:57:41.425Z,-0.33
2019-01-20T01:00:16.871Z,-0.36
2019-01-20T01:02:45.478Z,-0.39
2019-01-20T01:05:14.215Z,-0.38
2019-01-20T01:07:42.830Z,-0.38
2019-01-20T01:10:11.484Z,-0.36
2019-01-20T01:12:40.785Z,-0.42
2019-01-20T01:15:11.216Z,-0.43
2019-01-20T01:17:39.779Z,-0.43
2019-01-20T01:20:13.764Z,-0.46
2019-01-20T01:22:42.335Z,-0.46
2019-01-20T01:25:12.358Z,-0.47
2019-01-20T01:27:41.134Z,-0.51
2019-01-20T01:30:12.750Z,-0.52
2019-01-20T01:32:41.237Z,-0.55
2019-01-20T01:35:09.953Z,-0.54
2019-01-20T01:37:38.513Z,-0.59
2019-01-20T01:40:09.873Z,-0.61
2019-01-20T01:42:38.400Z,-0.62
2019-01-20T01:45:10.036Z,-0.65
2019-01-20T01:47:38.682Z,-0.69
2019-01-20T01:50:08.976Z,-0.73
2019-01-20T01:52:37.497Z,-0.75
2019-01-20T01:55:07.764Z,-0.72
2019-01-20T01:57:36.295Z,-0.79
2019-01-20T02:00:08.488Z,-0.79
2019-01-20T02:02:37.060Z,-0.82
2019-01-20T02:05:07.693Z,-0.86
2019-01-20T02:07:36.284Z,-0.87
2019-01-20T02:10:07.866Z,-0.87
2019-01-20T02:12:36.398Z,-0.88
2019-01-20T02:15:07.414Z,-0.91
2019-01-20T02:17:35.981Z,-0.90
2019-01-20T02:20:07.241Z,-0.93
2019-01-20T02:22:35.816Z,-0.93
2019-01-20T02:25:04.920Z,-0.93
2019-01-20T02:27:33.480Z,-0.95
2019-01-20T02:30:02.113Z,-0.95
2019-01-20T02:32:30.735Z,-0.96
2019-01-20T02:34:59.320Z,-0.97
2019-01-20T02:37:27.771Z,-0.99
2019-01-20T02:39:56.334Z,-0.97
2019-01-20T02:42:24.830Z,-1.03
2019-01-20T02:44:53.347Z,-1.03
2019-01-20T02:47:21.836Z,-1.06
2019-01-20T02:49:50.780Z,-1.07
2019-01-20T02:52:19.369Z,-1.08
2019-01-20T02:54:47.901Z,-1.08
2019-01-20T02:57:16.445Z,-1.08
2019-01-20T02:59:45.001Z,-1.10
2019-01-20T03:02:13.577Z,-1.12
2019-01-20T03:04:42.050Z,-1.12
2019-01-20T03:07:10.598Z,-1.13
2019-01-20T03:09:39.011Z,-1.14
2019-01-20T03:12:07.477Z,-1.19
2019-01-20T03:14:36.100Z,-1.17
2019-01-20T03:17:04.687Z,-1.21
2019-01-20T03:19:33.642Z,-1.20
2019-01-20T03:22:02.241Z,-1.19
2019-01-20T03:24:30.868Z,-1.19
2019-01-20T03:26:59.514Z,-1.14
2019-01-20T03:29:28.396Z,-1.20
2019-01-20T03:31:56.930Z,-1.23
2019-01-20T03:34:25.556Z,-1.27
2019-01-20T03:36:54.342Z,-1.23
2019-01-20T03:39:22.955Z,-1.26
2019-01-20T03:41:51.563Z,-1.27
2019-01-20T03:44:20.149Z,-1.29
2019-01-20T03:46:48.719Z,-1.29
2019-01-20T03:49:17.280Z,-1.27
2019-01-20T03:51:45.833Z,-1.30
2019-01-20T03:54:14.280Z,-1.31
2019-01-20T03:56:42.822Z,-1.34
2019-01-20T03:59:11.408Z,-1.37
2019-01-20T04:01:40.051Z,-1.37
2019-01-20T04:04:08.672Z,-1.39
2019-01-20T04:06:37.289Z,-1.42
2019-01-20T04:09:07.519Z,-1.43
2019-01-20T04:11:36.029Z,-1.47
2019-01-20T04:14:04.578Z,-1.52
2019-01-20T04:16:33.165Z,-1.50
2019-01-20T04:19:01.702Z,-1.55
2019-01-20T04:21:30.347Z,-1.56
2019-01-20T04:23:58.888Z,-1.58
2019-01-20T04:26:27.407Z,-1.60
2019-01-20T04:28:56.075Z,-1.59
2019-01-20T04:31:24.599Z,-1.56
2019-01-20T04:33:53.066Z,-1.57
2019-01-20T04:36:21.698Z,-1.61
2019-01-20T04:38:50.270Z,-1.60
2019-01-20T04:41:18.794Z,-1.59
2019-01-20T04:43:47.330Z,-1.64
2019-01-20T04:46:15.944Z,-1.61
2019-01-20T04:48:44.620Z,-1.60
2019-01-20T04:51:13.215Z,-1.62
2019-01-20T04:53:42.055Z,-1.67
2019-01-20T04:56:10.699Z,-1.67
2019-01-20T04:58:39.257Z,-1.64
2019-01-20T05:01:07.819Z,-1.68
2019-01-20T05:03:36.365Z,-1.68
2019-01-20T05:06:05.091Z,-1.70
2019-01-20T05:08:33.715Z,-1.70
2019-01-20T05:11:02.289Z,-1.75
2019-01-20T05:13:30.898Z,-1.75
2019-01-20T05:15:59.295Z,-1.78
2019-01-20T05:18:27.839Z,-1.79
2019-01-20T05:20:56.380Z,-1.79
2019-01-20T05:23:25.033Z,-1.77
2019-01-20T05:25:53.483Z,-1.84
2019-01-20T05:28:22.062Z,-1.84
2019-01-20T05:30:50.606Z,-1.85
2019-01-20T05:33:19.230Z,-1.87
2019-01-20T05:35:47.823Z,-1.87
2019-01-20T05:38:16.330Z,-1.90
2019-01-20T05:40:45.212Z,-1.86
2019-01-20T05:43:13.786Z,-1.90
2019-01-20T05:45:42.310Z,-1.87
2019-01-20T05:48:11.332Z,-1.89
2019-01-20T05:50:39.863Z,-1.89
2019-01-20T05:53:08.378Z,-1.94
2019-01-20T05:55:36.927Z,-1.95
2019-01-20T05:58:05.555Z,-1.94
2019-01-20T06:00:34.652Z,-1.96
2019-01-20T06:03:03.311Z,-1.97
2019-01-20T06:05:31.760Z,-1.96
2019-01-20T06:08:00.334Z,-1.92
2019-01-20T06:10:28.900Z,-1.97
2019-01-20T06:12:57.467Z,-1.98
2019-01-20T06:15:26.088Z,-1.97
2019-01-20T06:17:54.538Z,-1.97
2019-01-20T06:20:23.275Z,-1.95
2019-01-20T06:22:51.760Z,-1.95
2019-01-20T06:25:20.344Z,-1.98
2019-01-20T06:27:48.935Z,-1.98
2019-01-20T06:30:25.665Z,-1.98
2019-01-20T06:32:54.250Z,-2.01
2019-01-20T06:35:22.906Z,-2.05
2019-01-20T06:37:51.464Z,-2.04
2019-01-20T06:40:19.971Z,-2.09
2019-01-20T06:42:48.558Z,-2.09
2019-01-20T06:45:17.143Z,-2.06
2019-01-20T06:47:45.705Z,-2.07
2019-01-20T06:50:19.357Z,-2.06
2019-01-20T06:52:47.957Z,-2.06
2019-01-20T06:55:16.649Z,-2.07
2019-01-20T06:57:45.247Z,-2.08
2019-01-20T07:00:19.279Z,-2.08
2019-01-20T07:02:47.880Z,-2.11
2019-01-20T07:05:16.667Z,-2.11
2019-01-20T07:07:45.239Z,-2.09
2019-01-20T07:10:15.952Z,-2.08
2019-01-20T07:12:44.516Z,-2.10
2019-01-20T07:15:15.374Z,-2.14
2019-01-20T07:17:44.045Z,-2.18
2019-01-20T07:20:13.589Z,-2.21
2019-01-20T07:22:42.272Z,-2.20
2019-01-20T07:25:10.821Z,-2.21
2019-01-20T07:27:39.389Z,-2.22
2019-01-20T07:30:16.348Z,-2.24
2019-01-20T07:32:44.851Z,-2.23
2019-01-20T07:35:14.087Z,-2.25
2019-01-20T07:37:42.630Z,-2.23
2019-01-20T07:40:14.376Z,-2.17
2019-01-20T07:42:43.114Z,-2.18
2019-01-20T07:45:13.122Z,-2.16
2019-01-20T07:47:41.771Z,-2.17
2019-01-20T07:50:15.873Z,-2.16
2019-01-20T07:52:44.559Z,-2.17
2019-01-20T07:55:13.160Z,-2.14
2019-01-20T07:57:41.786Z,-2.13
2019-01-20T08:00:13.432Z,-2.12
2019-01-20T08:02:42.248Z,-2.10
2019-01-20T08:05:11.048Z,-2.06
2019-01-20T08:07:39.816Z,-2.08
2019-01-20T08:10:11.404Z,-2.07
2019-01-20T08:12:41.931Z,-2.05
2019-01-20T08:15:12.905Z,-2.04
2019-01-20T08:17:41.469Z,-2.04
2019-01-20T08:20:18.806Z,-1.97
2019-01-20T08:22:47.472Z,-1.99
2019-01-20T08:25:17.537Z,-2.10
2019-01-20T08:27:46.473Z,-2.13
2019-01-20T08:30:20.205Z,-2.09
2019-01-20T08:32:48.894Z,-2.05
2019-01-20T08:35:17.579Z,-1.98
2019-01-20T08:37:46.167Z,-1.96
2019-01-20T08:40:28.602Z,-1.94
2019-01-20T08:42:57.466Z,-1.92
2019-01-20T08:45:40.694Z,-1.90
2019-01-20T08:48:18.350Z,-1.88
2019-01-20T08:50:47.090Z,-1.88
2019-01-20T08:53:18.598Z,-1.85
2019-01-20T08:55:47.500Z,-1.83
2019-01-20T08:58:16.287Z,-1.79
2019-01-20T09:00:45.159Z,-1.75
2019-01-20T09:03:15.976Z,-1.71
2019-01-20T09:05:44.328Z,-1.69
2019-01-20T09:08:13.065Z,-1.64
2019-01-20T09:10:41.854Z,-1.60
2019-01-20T09:13:11.079Z,-1.57
2019-01-20T09:15:39.846Z,-1.54
2019-01-20T09:18:08.522Z,-1.49
2019-01-20T09:20:37.437Z,-1.43
2019-01-20T09:23:06.072Z,-1.39
2019-01-20T09:25:34.737Z,-1.39
2019-01-20T09:28:03.323Z,-1.34
2019-01-20T09:30:32.000Z,-1.35
2019-01-20T09:33:00.512Z,-1.29
2019-01-20T09:35:29.093Z,-1.26
2019-01-20T09:37:57.587Z,-1.25
2019-01-20T09:40:26.401Z,-1.23
2019-01-20T09:42:55.053Z,-1.19
2019-01-20T09:45:27.664Z,-1.19
2019-01-20T09:47:56.375Z,-1.13
2019-01-20T09:50:25.008Z,-1.09
2019-01-20T09:52:53.902Z,-1.03
2019-01-20T09:55:23.632Z,-0.98
2019-01-20T09:57:52.239Z,-0.94
2019-01-20T10:00:23.628Z,-0.91
2019-01-20T10:02:52.258Z,-0.88
2019-01-20T10:05:20.859Z,-0.87
2019-01-20T10:07:49.520Z,-0.82
2019-01-20T10:10:18.832Z,-0.74
2019-01-20T10:12:47.533Z,-0.75
2019-01-20T10:15:17.702Z,-0.67
2019-01-20T10:17:46.402Z,-0.64
2019-01-20T10:20:20.595Z,-0.61
2019-01-20T10:22:49.363Z,-0.55
2019-01-20T10:25:18.073Z,-0.54
2019-01-20T10:27:46.647Z,-0.54
2019-01-20T10:30:18.502Z,-0.49
2019-01-20T10:32:48.116Z,-0.43
2019-01-20T10:35:17.316Z,-0.42
2019-01-20T10:37:46.135Z,-0.38
2019-01-20T10:40:14.852Z,-0.32
2019-01-20T10:42:43.466Z,-0.27
2019-01-20T10:45:12.081Z,-0.27
2019-01-20T10:47:40.718Z,-0.26
2019-01-20T10:50:12.323Z,-0.25
2019-01-20T10:52:40.879Z,-0.21
2019-01-20T10:55:09.733Z,-0.15
2019-01-20T10:57:38.405Z,-0.11
2019-01-20T11:00:21.986Z,-0.10
2019-01-20T11:02:50.641Z,-0.06
2019-01-20T11:05:24.905Z,-0.01
2019-01-20T11:07:49.456Z,0.05
2019-01-20T11:10:18.194Z,0.06
2019-01-20T11:12:46.790Z,0.09
2019-01-20T11:15:16.615Z,0.12
2019-01-20T11:17:45.280Z,0.11
2019-01-20T11:20:19.199Z,0.15
2019-01-20T11:22:47.863Z,0.16
2019-01-20T11:25:22.251Z,0.14
2019-01-20T11:27:50.873Z,0.18
2019-01-20T11:30:19.883Z,0.18
2019-01-20T11:32:48.492Z,0.23
2019-01-20T11:35:19.171Z,0.21
2019-01-20T11:37:47.786Z,0.33
2019-01-20T11:40:16.589Z,0.29
2019-01-20T11:42:45.257Z,0.37
2019-01-20T11:45:27.610Z,0.33
2019-01-20T11:47:56.217Z,0.35
2019-01-20T11:50:25.053Z,0.44
2019-01-20T11:52:53.548Z,0.43
2019-01-20T11:55:23.658Z,0.45
2019-01-20T11:57:52.275Z,0.46
2019-01-20T12:00:26.367Z,0.46
2019-01-20T12:02:55.025Z,0.57
2019-01-20T12:05:23.641Z,0.57
2019-01-20T12:07:52.463Z,0.55
2019-01-20T12:10:21.113Z,0.63
2019-01-20T12:13:00.301Z,0.59
2019-01-20T12:15:30.400Z,0.60
2019-01-20T12:17:59.063Z,0.71
2019-01-20T12:20:27.802Z,0.67
2019-01-20T12:22:56.337Z,0.65
2019-01-20T12:25:24.916Z,0.71
2019-01-20T12:27:53.442Z,0.66
2019-01-20T12:30:33.043Z,0.66
2019-01-20T12:33:01.571Z,0.70
2019-01-20T12:35:30.249Z,0.72
2019-01-20T12:37:58.889Z,0.75
2019-01-20T12:40:30.111Z,0.80
2019-01-20T12:42:58.639Z,0.80
2019-01-20T12:45:27.250Z,0.81
2019-01-20T12:47:56.130Z,0.85
2019-01-20T12:50:24.746Z,0.91
2019-01-20T12:52:53.473Z,0.90
2019-01-20T12:55:22.087Z,0.94
2019-01-20T12:57:50.609Z,0.99
2019-01-20T13:00:20.235Z,0.97
2019-01-20T13:02:49.004Z,0.97
2019-01-20T13:05:17.613Z,1.02
2019-01-20T13:07:46.210Z,1.04
2019-01-20T13:10:19.911Z,1.06
2019-01-20T13:12:48.888Z,1.05
2019-01-20T13:15:22.664Z,1.08
2019-01-20T13:17:51.295Z,1.09
2019-01-20T13:20:25.005Z,1.10
2019-01-20T13:22:53.826Z,1.18
2019-01-20T13:25:25.064Z,1.19
2019-01-20T13:27:53.630Z,1.17
2019-01-20T13:30:24.262Z,1.19
2019-01-20T13:32:52.903Z,1.21
2019-01-20T13:35:22.155Z,1.22
2019-01-20T13:37:58.998Z,1.23
2019-01-20T13:40:36.519Z,1.22
2019-01-20T13:43:05.266Z,1.24
2019-01-20T13:45:33.762Z,1.22
2019-01-20T13:48:02.386Z,1.23
2019-01-20T13:50:30.973Z,1.25
2019-01-20T13:52:59.538Z,1.23
2019-01-20T13:55:28.437Z,1.23
2019-01-20T13:57:56.936Z,1.23
2019-01-20T14:00:26.884Z,1.21
2019-01-20T14:02:55.564Z,1.22
2019-01-20T14:05:24.224Z,1.23
2019-01-20T14:07:52.910Z,1.25
2019-01-20T14:10:23.482Z,1.26
2019-01-20T14:12:52.229Z,1.29
2019-01-20T14:15:20.697Z,1.28
2019-01-20T14:17:49.338Z,1.35
2019-01-20T14:20:28.205Z,1.33
2019-01-20T14:22:57.115Z,1.31
2019-01-20T14:25:30.160Z,1.43
2019-01-20T14:27:58.742Z,1.46
2019-01-20T14:30:32.584Z,1.54
2019-01-20T14:33:01.129Z,1.52
2019-01-20T14:35:29.840Z,1.50
2019-01-20T14:37:58.347Z,1.47
2019-01-20T14:40:26.807Z,1.36
2019-01-20T14:42:55.684Z,1.29
2019-01-20T14:45:24.411Z,1.26
2019-01-20T14:47:53.037Z,1.11
2019-01-20T14:50:27.412Z,1.17
2019-01-20T14:52:57.309Z,1.05
2019-01-20T14:55:26.323Z,0.99
2019-01-20T14:57:55.221Z,0.93
2019-01-20T15:00:35.510Z,0.94
2019-01-20T15:03:06.008Z,0.93
2019-01-20T15:05:40.261Z,0.85
2019-01-20T15:08:09.201Z,0.80
2019-01-20T15:10:37.801Z,0.75
2019-01-20T15:13:06.557Z,0.68
2019-01-20T15:15:37.406Z,0.69
2019-01-20T15:18:06.942Z,0.62
2019-01-20T15:20:35.730Z,0.62
2019-01-20T15:23:04.755Z,0.65
2019-01-20T15:25:33.619Z,0.55
2019-01-20T15:28:02.176Z,0.48
2019-01-20T15:30:32.254Z,0.42
2019-01-20T15:33:02.262Z,0.44
2019-01-20T15:35:30.975Z,0.38
2019-01-20T15:37:59.634Z,0.37
2019-01-20T15:40:28.209Z,0.30
2019-01-20T15:42:56.751Z,0.26
2019-01-20T15:45:25.788Z,0.21
2019-01-20T15:47:54.385Z,0.18
2019-01-20T15:50:30.772Z,0.20
2019-01-20T15:52:59.425Z,0.16
2019-01-20T15:55:28.219Z,0.15
2019-01-20T15:57:56.776Z,0.18
2019-01-20T16:00:32.442Z,0.28
2019-01-20T16:03:01.170Z,0.22
2019-01-20T16:05:29.898Z,0.17
2019-01-20T16:07:58.754Z,0.08
2019-01-20T16:10:27.718Z,0.03
2019-01-20T16:12:56.406Z,-0.03
2019-01-20T16:15:30.507Z,-0.03
2019-01-20T16:17:59.128Z,-0.06
2019-01-20T16:20:28.106Z,-0.05
2019-01-20T16:22:56.853Z,-0.07
2019-01-20T16:25:28.072Z,-0.07
2019-01-20T16:27:56.681Z,-0.06
2019-01-20T16:30:33.064Z,-0.08
2019-01-20T16:33:01.690Z,-0.04
2019-01-20T16:35:30.223Z,-0.07
2019-01-20T16:37:59.638Z,-0.08
2019-01-20T16:40:28.653Z,-0.04
2019-01-20T16:42:57.798Z,-0.13
2019-01-20T16:45:34.149Z,-0.16
2019-01-20T16:48:02.741Z,-0.16
2019-01-20T16:50:31.257Z,-0.18
2019-01-20T16:52:59.905Z,-0.17
2019-01-20T16:55:28.615Z,-0.19
2019-01-20T16:57:57.559Z,-0.18
2019-01-20T17:00:34.784Z,-0.24
2019-01-20T17:03:03.375Z,-0.22
2019-01-20T17:05:31.951Z,-0.25
2019-01-20T17:08:00.596Z,-0.28
2019-01-20T17:10:34.159Z,-0.22
2019-01-20T17:13:03.266Z,-0.23
2019-01-20T17:15:39.411Z,-0.29
2019-01-20T17:18:06.370Z,-0.26
2019-01-20T17:20:35.043Z,-0.33
2019-01-20T17:23:03.669Z,-0.32
2019-01-20T17:25:32.320Z,-0.39
2019-01-20T17:28:01.078Z,-0.40
2019-01-20T17:30:53.342Z,-0.37
2019-01-20T17:33:44.946Z,-0.40
2019-01-20T17:36:13.756Z,-0.34
2019-01-20T17:38:42.228Z,-0.42
2019-01-20T17:41:10.792Z,-0.41
2019-01-20T17:43:39.338Z,-0.38
2019-01-20T17:46:07.888Z,-0.44
2019-01-20T17:48:36.408Z,-0.44
2019-01-20T17:51:05.008Z,-0.49
2019-01-20T17:53:33.627Z,-0.48
2019-01-20T17:56:02.011Z,-0.46
2019-01-20T17:58:30.586Z,-0.48
2019-01-20T18:01:00.091Z,-0.52
2019-01-20T18:03:28.805Z,-0.51
2019-01-20T18:05:57.397Z,-0.55
2019-01-20T18:08:25.868Z,-0.51
2019-01-20T18:10:54.448Z,-0.50
2019-01-20T18:13:23.201Z,-0.54
2019-01-20T18:15:54.629Z,-0.56
2019-01-20T18:18:21.825Z,-0.57
2019-01-20T18:20:50.532Z,-0.57
2019-01-20T18:23:19.367Z,-0.70
2019-01-20T18:25:47.982Z,-0.67
2019-01-20T18:28:17.075Z,-0.69
2019-01-20T18:30:45.734Z,-0.64
2019-01-20T18:33:14.405Z,-0.67
2019-01-20T18:35:43.054Z,-0.68
2019-01-20T18:38:11.610Z,-0.66
2019-01-20T18:40:40.383Z,-0.66
2019-01-20T18:43:08.945Z,-0.63
2019-01-20T18:45:37.734Z,-0.63
2019-01-20T18:48:06.331Z,-0.61
2019-01-20T18:50:36.795Z,-0.59
2019-01-20T18:53:05.724Z,-0.60
2019-01-20T18:55:35.002Z,-0.57
2019-01-20T18:58:03.587Z,-0.58
2019-01-20T19:00:40.946Z,-0.59
2019-01-20T19:03:09.528Z,-0.55
2019-01-20T19:05:38.062Z,-0.52
2019-01-20T19:08:06.690Z,-0.50
2019-01-20T19:10:35.225Z,-0.49
2019-01-20T19:13:03.892Z,-0.48
2019-01-20T19:15:32.495Z,-0.47
2019-01-20T19:18:01.039Z,-0.47
2019-01-20T19:20:29.596Z,-0.46
2019-01-20T19:22:59.040Z,-0.46
2019-01-20T19:25:27.770Z,-0.45
2019-01-20T19:27:56.399Z,-0.46
2019-01-20T19:30:35.563Z,-0.46
2019-01-20T19:33:04.386Z,-0.47
2019-01-20T19:35:33.052Z,-0.49
2019-01-20T19:38:01.736Z,-0.48
2019-01-20T19:40:30.264Z,-0.46
2019-01-20T19:42:58.825Z,-0.46
2019-01-20T19:45:27.469Z,-0.46
2019-01-20T19:47:56.104Z,-0.43
2019-01-20T19:50:24.759Z,-0.43
2019-01-20T19:52:53.240Z,-0.42
2019-01-20T19:55:24.367Z,-0.37
2019-01-20T19:57:52.918Z,-0.43
2019-01-20T20:00:29.715Z,-0.42
2019-01-20T20:02:58.352Z,-0.44
2019-01-20T20:05:26.954Z,-0.43
2019-01-20T20:07:56.441Z,-0.43
2019-01-20T20:10:26.498Z,-0.43
2019-01-20T20:12:56.001Z,-0.39
2019-01-20T20:15:25.965Z,-0.41
2019-01-20T20:17:54.670Z,-0.40
2019-01-20T20:20:24.451Z,-0.40
2019-01-20T20:22:53.214Z,-0.38
2019-01-20T20:25:23.456Z,-0.32
2019-01-20T20:27:52.493Z,-0.41
2019-01-20T20:30:30.040Z,-0.43
2019-01-20T20:32:58.709Z,-0.43
2019-01-20T20:35:27.461Z,-0.41
2019-01-20T20:37:56.265Z,-0.47
2019-01-20T20:40:24.902Z,-0.50
2019-01-20T20:42:54.151Z,-0.50
2019-01-20T20:45:27.207Z,-0.46
2019-01-20T20:47:55.879Z,-0.50
2019-01-20T20:50:24.356Z,-0.57
2019-01-20T20:52:52.999Z,-0.57
2019-01-20T20:55:21.645Z,-0.54
2019-01-20T20:57:50.203Z,-0.57
2019-01-20T21:00:30.323Z,-0.62
2019-01-20T21:03:00.554Z,-0.66
2019-01-20T21:05:29.292Z,-0.62
2019-01-20T21:07:58.010Z,-0.70
2019-01-20T21:10:26.777Z,-0.73
2019-01-20T21:12:55.323Z,-0.72
2019-01-20T21:15:23.972Z,-0.72
2019-01-20T21:17:52.534Z,-0.67
2019-01-20T21:20:22.911Z,-0.64
2019-01-20T21:22:51.587Z,-0.67
2019-01-20T21:25:20.205Z,-0.69
2019-01-20T21:27:48.812Z,-0.67
2019-01-20T21:30:22.848Z,-0.66
2019-01-20T21:32:51.405Z,-0.68
2019-01-20T21:35:20.155Z,-0.68
2019-01-20T21:37:49.278Z,-0.67
2019-01-20T21:40:19.318Z,-0.67
2019-01-20T21:42:48.059Z,-0.68
2019-01-20T21:45:18.241Z,-0.65
2019-01-20T21:47:46.963Z,-0.67
2019-01-20T21:50:20.781Z,-0.68
2019-01-20T21:52:49.646Z,-0.66
2019-01-20T21:55:18.651Z,-0.67
2019-01-20T21:57:47.298Z,-0.73
2019-01-20T22:00:21.647Z,-0.68
2019-01-20T22:02:51.831Z,-0.69
2019-01-20T22:05:20.390Z,-0.69
2019-01-20T22:07:49.198Z,-0.77
2019-01-20T22:10:24.325Z,-0.80
2019-01-20T22:12:52.985Z,-0.81
2019-01-20T22:15:21.772Z,-0.82
2019-01-20T22:17:50.841Z,-0.87
2019-01-20T22:20:21.770Z,-0.90
2019-01-20T22:22:50.814Z,-0.94
2019-01-20T22:25:19.396Z,-0.99
2019-01-20T22:27:48.229Z,-0.96
2019-01-20T22:30:19.440Z,-0.97
2019-01-20T22:32:47.966Z,-1.02
2019-01-20T22:35:16.702Z,-1.24
2019-01-20T22:37:45.267Z,-1.22
2019-01-20T22:40:16.674Z,-1.18
2019-01-20T22:42:45.756Z,-1.14
2019-01-20T22:45:25.038Z,-1.10
2019-01-20T22:47:53.949Z,-1.05
2019-01-20T22:50:22.655Z,-1.00
2019-01-20T22:52:51.248Z,-0.94
2019-01-20T22:55:20.001Z,-0.95
2019-01-20T22:57:48.815Z,-0.98
2019-01-20T23:00:30.872Z,-1.12
2019-01-20T23:02:59.504Z,-1.18
2019-01-20T23:05:28.120Z,-1.12
2019-01-20T23:07:56.622Z,-1.08
2019-01-20T23:10:25.166Z,-1.04
2019-01-20T23:12:53.675Z,-1.00
2019-01-20T23:15:22.192Z,-1.21
2019-01-20T23:17:50.700Z,-1.18
2019-01-20T23:20:19.425Z,-1.22
2019-01-20T23:22:47.921Z,-1.24
2019-01-20T23:25:16.394Z,-1.22
2019-01-20T23:27:45.071Z,-1.24
2019-01-20T23:30:15.544Z,-1.20
2019-01-20T23:32:44.154Z,-1.16
2019-01-20T23:35:12.755Z,-1.14
2019-01-20T23:37:41.625Z,-1.14
2019-01-20T23:40:16.819Z,-1.10
2019-01-20T23:42:45.768Z,-1.15
2019-01-20T23:45:14.412Z,-1.15
2019-01-20T23:47:43.018Z,-1.23
2019-01-20T23:50:13.418Z,-1.26
2019-01-20T23:52:42.323Z,-1.20
2019-01-20T23:55:11.955Z,-1.17
2019-01-20T23:57:40.413Z,-1.20
